Time;durP1;ratioP1;P1;durP2;ratioP2;P2;SDS_P1;SDS_P2;PMS_P1;PMS_P2;Temp;Humidity;BMP_temperature;BMP_pressure;BME280_temperature;BME280_humidity;BME280_pressure;Samples;Min_cycle;Max_cycle;Signal;HPM_P1;HPM_P2
2023/09/23 00:02:09;;;;;;;8.37;2.87;;;;;;;26.12;50.41;98918.53;5072908;28;20294;-88
2023/09/23 00:04:36;;;;;;;7.17;3.33;;;;;;;25.94;51.16;98924.22;5073058;28;20607;-88
2023/09/23 00:07:02;;;;;;;6.43;2.80;;;;;;;25.84;51.00;98918.28;5072998;28;20177;-88
2023/09/23 00:09:28;;;;;;;10.17;3.13;;;;;;;25.88;51.31;98911.56;5075216;28;20490;-88
2023/09/23 00:11:54;;;;;;;6.90;2.73;;;;;;;25.92;50.81;98909.31;5076660;28;20685;-87
2023/09/23 00:14:22;;;;;;;10.47;2.80;;;;;;;25.94;50.84;98912.69;5076659;28;20180;-88
2023/09/23 00:16:48;;;;;;;9.33;3.10;;;;;;;25.78;51.46;98920.88;5059120;28;20173;-88
2023/09/23 00:19:15;;;;;;;5.87;2.80;;;;;;;25.71;51.63;98925.31;5076516;28;20635;-87
2023/09/23 00:21:42;;;;;;;6.83;2.90;;;;;;;25.63;51.59;98926.22;5059324;28;20181;-88
2023/09/23 00:24:08;;;;;;;4.73;2.23;;;;;;;25.56;51.68;98933.31;5059725;28;20197;-87
2023/09/23 00:26:35;;;;;;;9.63;3.17;;;;;;;25.61;52.01;98930.94;5058951;28;20172;-88
2023/09/23 00:29:02;;;;;;;9.00;2.77;;;;;;;25.64;51.86;98935.94;5076813;28;20173;-88
2023/09/23 00:31:29;;;;;;;9.73;2.83;;;;;;;25.56;52.41;98933.31;5059493;28;20169;-88
2023/09/23 00:33:55;;;;;;;9.23;2.77;;;;;;;25.50;52.43;98934.03;5077127;28;20341;-88
2023/09/23 00:36:22;;;;;;;5.53;2.20;;;;;;;25.45;52.54;98936.38;5058824;28;20629;-88
2023/09/23 00:38:48;;;;;;;8.23;3.00;;;;;;;25.40;52.58;98928.06;5058430;28;20653;-87
2023/09/23 00:41:14;;;;;;;5.70;3.00;;;;;;;25.32;52.65;98926.25;5058525;28;20276;-88
2023/09/23 00:43:40;;;;;;;11.80;3.07;;;;;;;25.31;52.75;98923.78;5058746;28;20208;-88
2023/09/23 00:46:08;;;;;;;10.67;3.30;;;;;;;25.32;52.52;98926.25;5058903;28;20595;-88
2023/09/23 00:48:39;;;;;;;7.97;3.00;;;;;;;25.31;52.67;98929.13;5076447;28;20618;-87
2023/09/23 00:51:07;;;;;;;6.50;2.40;;;;;;;25.24;52.95;98928.16;5058897;28;20268;-87
2023/09/23 00:53:36;;;;;;;5.63;2.63;;;;;;;25.21;53.04;98923.19;5076316;28;20196;-88
2023/09/23 00:56:03;;;;;;;7.07;2.63;;;;;;;25.18;53.12;98926.22;5058759;28;20530;-87
2023/09/23 00:58:30;;;;;;;9.87;3.30;;;;;;;25.19;53.09;98922.50;5076186;28;20267;-88
2023/09/23 01:00:56;;;;;;;6.87;2.87;;;;;;;25.20;53.22;98921.50;5058621;28;20674;-87
2023/09/23 01:03:23;;;;;;;9.50;2.57;;;;;;;25.23;53.37;98918.47;5075979;28;20260;-87
2023/09/23 01:06:08;;;;;;;8.00;3.23;;;;;;;25.26;53.40;98934.22;5075880;28;20663;-88
2023/09/23 01:08:35;;;;;;;12.50;2.67;;;;;;;25.21;53.27;98926.66;5075708;28;20329;-88
2023/09/23 01:11:01;;;;;;;6.33;2.70;;;;;;;25.11;53.22;98925.22;5058036;28;20173;-87
2023/09/23 01:13:30;;;;;;;7.10;2.87;;;;;;;25.04;53.76;98917.06;5058879;28;20205;-88
2023/09/23 01:15:56;;;;;;;5.43;2.43;;;;;;;25.00;53.61;98919.28;5075873;28;20177;-87
2023/09/23 01:18:23;;;;;;;6.90;3.27;;;;;;;25.02;53.22;98927.16;5075928;28;20169;-88
2023/09/23 01:20:55;;;;;;;6.87;2.60;;;;;;;24.99;53.28;98928.34;5056566;28;20181;-88
2023/09/23 01:23:21;;;;;;;8.03;3.00;;;;;;;24.91;53.33;98920.34;5057947;28;20623;-87
2023/09/23 01:25:48;;;;;;;6.83;2.80;;;;;;;24.80;54.01;98917.22;5075746;28;20174;-87
2023/09/23 01:28:15;;;;;;;8.30;3.37;;;;;;;24.74;53.84;98921.41;5057901;28;20177;-87
2023/09/23 01:30:45;;;;;;;6.00;3.10;;;;;;;24.70;53.82;98922.78;5057828;28;20188;-87
2023/09/23 01:33:13;;;;;;;8.30;3.30;;;;;;;24.64;53.86;98927.97;5075254;28;20308;-87
2023/09/23 01:35:42;;;;;;;6.17;3.13;;;;;;;24.66;53.61;98931.34;5075332;28;20169;-88
2023/09/23 01:38:08;;;;;;;9.97;2.83;;;;;;;24.64;53.46;98926.13;5075550;28;20176;-88
2023/09/23 01:40:39;;;;;;;5.87;2.80;;;;;;;24.60;53.31;98940.91;5075152;28;20180;-88
2023/09/23 01:43:10;;;;;;;6.43;3.23;;;;;;;24.47;53.89;98943.31;5075219;28;20742;-87
2023/09/23 01:45:36;;;;;;;7.80;2.83;;;;;;;24.43;54.03;98947.34;5074981;28;20202;-88
2023/09/23 01:48:03;;;;;;;5.47;2.70;;;;;;;24.44;54.11;98940.97;5075160;28;20272;-87
2023/09/23 01:50:28;;;;;;;7.17;2.73;;;;;;;24.48;54.09;98938.75;5074867;28;20253;-87
2023/09/23 01:52:59;;;;;;;7.33;2.80;;;;;;;24.56;53.43;98939.56;5074894;28;20564;-87
2023/09/23 01:55:27;;;;;;;9.73;2.97;;;;;;;24.54;53.57;98930.88;5075048;28;20161;-88
2023/09/23 01:57:54;;;;;;;8.87;2.60;;;;;;;24.44;54.20;98930.25;5056851;28;20185;-88
2023/09/23 02:00:28;;;;;;;5.57;2.97;;;;;;;24.30;54.39;98928.28;5057286;28;20222;-88
2023/09/23 02:02:57;;;;;;;9.10;2.53;;;;;;;24.25;54.81;98931.50;5058069;28;20160;-87
2023/09/23 02:05:27;;;;;;;9.23;3.27;;;;;;;24.24;54.88;98931.66;5074693;28;20204;-88
2023/09/23 02:07:54;;;;;;;6.90;3.00;;;;;;;24.25;54.63;98925.28;5075235;28;20200;-87
2023/09/23 02:10:24;;;;;;;7.93;3.47;;;;;;;24.28;54.97;98924.94;5075033;28;20177;-87
2023/09/23 02:12:50;;;;;;;10.37;3.40;;;;;;;24.25;54.49;98920.78;5056879;28;20296;-88
2023/09/23 02:15:17;;;;;;;7.17;2.87;;;;;;;24.20;54.81;98922.28;5057175;28;20638;-87
2023/09/23 02:17:45;;;;;;;9.97;3.23;;;;;;;24.24;54.76;98919.09;5057013;28;20287;-87
2023/09/23 02:20:17;;;;;;;10.13;3.20;;;;;;;24.32;54.46;98924.44;5057078;28;20177;-88
2023/09/23 02:22:49;;;;;;;10.40;2.87;;;;;;;24.14;55.29;98929.16;5057668;28;20193;-88
2023/09/23 02:25:14;;;;;;;9.93;3.00;;;;;;;24.07;55.93;98935.34;5056602;28;20185;-87
2023/09/23 02:27:41;;;;;;;11.13;3.03;;;;;;;24.04;55.88;98939.22;5056467;28;20642;-88
2023/09/23 02:30:10;;;;;;;9.67;2.97;;;;;;;23.98;56.29;98933.72;5054397;28;20189;-87
2023/09/23 02:32:49;;;;;;;7.97;2.87;;;;;;;23.95;56.71;98939.41;5058576;28;20201;-87
2023/09/23 02:35:16;;;;;;;7.50;3.17;;;;;;;23.94;56.76;98943.06;5056619;28;20193;-87
2023/09/23 02:37:44;;;;;;;7.70;2.97;;;;;;;23.98;57.06;98939.06;5056590;28;20171;-88
2023/09/23 02:40:17;;;;;;;6.20;3.10;;;;;;;24.04;56.88;98946.41;5073726;28;20188;-88
2023/09/23 02:42:46;;;;;;;6.27;3.27;;;;;;;24.03;56.07;98950.09;5056166;28;20735;-87
2023/09/23 02:45:16;;;;;;;11.63;4.23;;;;;;;24.09;55.42;98949.44;5044193;28;20212;-87
2023/09/23 02:47:44;;;;;;;6.87;3.07;;;;;;;24.04;55.17;98954.44;5036683;28;20178;-88
2023/09/23 02:50:10;;;;;;;8.33;3.37;;;;;;;23.98;55.65;98955.13;5049952;28;20253;-87
2023/09/23 02:52:48;;;;;;;6.17;3.40;;;;;;;23.88;55.84;98954.44;5073790;28;20290;-87
2023/09/23 02:55:16;;;;;;;10.87;3.03;;;;;;;23.78;55.85;98947.44;5056198;28;20640;-87
2023/09/23 02:57:46;;;;;;;10.10;3.43;;;;;;;23.81;56.00;98949.78;5056408;28;20173;-87
2023/09/23 03:00:16;;;;;;;8.13;3.00;;;;;;;23.81;55.73;98948.94;5056334;28;20247;-88
2023/09/23 03:02:45;;;;;;;7.50;2.77;;;;;;;23.76;56.09;98949.47;5056128;28;20686;-87
2023/09/23 03:05:16;;;;;;;11.23;3.07;;;;;;;23.75;56.04;98949.63;5074178;28;20509;-88
2023/09/23 03:07:48;;;;;;;5.67;3.00;;;;;;;23.73;56.51;98957.81;5073396;28;20240;-87
2023/09/23 03:10:19;;;;;;;7.23;2.73;;;;;;;23.68;56.51;98953.97;5056420;28;20249;-87
2023/09/23 03:12:56;;;;;;;6.50;3.13;;;;;;;23.67;56.55;98955.81;5056203;28;20193;-87
2023/09/23 03:15:33;;;;;;;7.77;2.80;;;;;;;23.74;56.18;98958.66;5055939;28;20183;-88
2023/09/23 03:18:00;;;;;;;7.90;3.23;;;;;;;23.84;55.88;98965.53;5056296;28;20234;-87
2023/09/23 03:20:27;;;;;;;4.83;2.60;;;;;;;23.82;55.56;98961.31;5055739;28;20177;-87
2023/09/23 03:22:54;;;;;;;8.93;3.07;;;;;;;23.74;56.15;98964.84;5056056;28;20212;-87
2023/09/23 03:25:21;;;;;;;7.20;3.43;;;;;;;23.69;56.14;98963.66;5055294;28;20177;-87
2023/09/23 03:27:48;;;;;;;7.43;2.83;;;;;;;23.65;56.52;98965.84;5073278;28;20177;-87
2023/09/23 03:30:15;;;;;;;12.10;3.47;;;;;;;23.58;56.99;98964.03;5055447;28;20185;-87
2023/09/23 03:32:40;;;;;;;8.63;2.73;;;;;;;23.61;56.86;98964.50;5055606;28;20200;-87
2023/09/23 03:35:16;;;;;;;5.60;2.83;;;;;;;23.61;56.54;98969.03;5073253;28;20280;-87
2023/09/23 03:37:47;;;;;;;9.00;3.50;;;;;;;23.54;57.03;98963.50;5073496;28;20633;-87
2023/09/23 03:40:15;;;;;;;8.00;4.00;;;;;;;23.50;57.27;98967.53;5055245;28;20203;-87
2023/09/23 03:42:42;;;;;;;6.93;2.80;;;;;;;23.45;57.31;98979.72;5072886;28;20169;-87
2023/09/23 03:45:10;;;;;;;7.93;2.97;;;;;;;23.40;57.82;98971.38;5055075;28;20184;-88
2023/09/23 03:47:37;;;;;;;7.50;2.30;;;;;;;23.41;57.47;98976.53;5073421;28;20173;-88
2023/09/23 03:50:04;;;;;;;11.43;2.70;;;;;;;23.38;57.68;98984.88;5054937;28;20184;-88
2023/09/23 03:52:32;;;;;;;8.60;3.10;;;;;;;23.37;58.02;98982.38;5055353;28;20287;-87
2023/09/23 03:54:58;;;;;;;6.93;3.20;;;;;;;23.37;57.86;98985.91;5056516;28;20172;-87
2023/09/23 03:57:23;;;;;;;12.10;3.40;;;;;;;23.35;57.84;98985.19;5055442;28;20252;-87
2023/09/23 03:59:50;;;;;;;5.97;2.87;;;;;;;23.32;57.88;98987.38;5072968;28;20173;-87
2023/09/23 04:02:16;;;;;;;8.93;2.90;;;;;;;23.31;57.59;98981.19;5073394;28;20664;-87
2023/09/23 04:04:42;;;;;;;6.67;3.20;;;;;;;23.31;57.13;98988.34;5055022;28;20187;-87
2023/09/23 04:07:10;;;;;;;9.37;4.17;;;;;;;23.25;56.92;98989.84;5072887;28;20256;-87
2023/09/23 04:09:35;;;;;;;9.67;3.50;;;;;;;23.21;57.13;98991.19;5072679;28;20246;-87
2023/09/23 04:12:03;;;;;;;7.10;3.27;;;;;;;23.20;57.36;98997.53;5072933;28;20583;-87
2023/09/23 04:14:30;;;;;;;11.10;3.00;;;;;;;23.22;57.09;99001.72;5073397;28;20696;-87
2023/09/23 04:16:57;;;;;;;8.17;3.00;;;;;;;23.22;56.87;99001.72;5055675;28;20188;-87
2023/09/23 04:19:23;;;;;;;8.93;3.70;;;;;;;23.23;57.02;99005.22;5055016;28;20187;-87
2023/09/23 04:21:48;;;;;;;10.10;2.60;;;;;;;23.25;57.05;99004.06;5072723;28;20537;-87
2023/09/23 04:24:15;;;;;;;7.87;3.23;;;;;;;23.23;57.20;99007.91;5055161;28;20188;-87
2023/09/23 04:26:41;;;;;;;13.50;3.60;;;;;;;23.19;57.22;99011.91;5054840;28;20173;-87
2023/09/23 04:29:08;;;;;;;4.87;2.83;;;;;;;23.24;57.03;99013.06;5073024;28;20207;-88
2023/09/23 04:31:34;;;;;;;7.40;3.43;;;;;;;23.30;56.91;99022.28;5072774;28;20192;-87
2023/09/23 04:34:01;;;;;;;10.93;3.27;;;;;;;23.30;57.38;99019.59;5073166;28;20197;-87
2023/09/23 04:36:28;;;;;;;9.93;3.37;;;;;;;23.27;57.52;99019.94;5053880;28;20618;-87
2023/09/23 04:38:53;;;;;;;10.83;3.23;;;;;;;23.27;58.00;99019.94;5059721;28;20550;-87
2023/09/23 04:41:20;;;;;;;6.17;3.23;;;;;;;23.32;57.67;99022.97;5055307;28;20271;-88
2023/09/23 04:43:45;;;;;;;8.67;3.70;;;;;;;23.41;57.57;99031.88;5055293;28;20647;-88
2023/09/23 04:46:14;;;;;;;7.33;3.30;;;;;;;23.45;57.71;99033.22;5055152;28;20189;-87
2023/09/23 04:48:42;;;;;;;8.93;3.23;;;;;;;23.46;57.34;99035.72;5054868;28;20173;-87
2023/09/23 04:51:08;;;;;;;6.73;2.80;;;;;;;23.49;57.09;99034.56;5054718;28;20618;-87
2023/09/23 04:53:34;;;;;;;7.20;3.20;;;;;;;23.57;56.90;99032.75;5054584;28;20205;-87
2023/09/23 04:56:10;;;;;;;8.53;3.37;;;;;;;23.60;56.18;99037.78;5074647;28;20260;-87
2023/09/23 04:58:36;;;;;;;7.67;3.00;;;;;;;23.68;55.94;99035.09;5076644;28;20244;-87
2023/09/23 05:01:03;;;;;;;13.10;3.40;;;;;;;23.67;56.14;99033.44;5058207;28;20204;-87
2023/09/23 05:03:30;;;;;;;9.07;3.00;;;;;;;23.69;56.46;99036.75;5075965;28;20169;-87
2023/09/23 05:05:57;;;;;;;7.97;2.90;;;;;;;23.74;56.35;99033.63;5058289;28;20173;-87
2023/09/23 05:08:23;;;;;;;9.77;2.90;;;;;;;23.83;55.76;99041.47;5076024;28;20270;-87
2023/09/23 05:10:49;;;;;;;9.53;2.83;;;;;;;23.92;55.36;99026.25;5076146;28;20642;-87
2023/09/23 05:13:17;;;;;;;8.07;2.97;;;;;;;24.01;54.74;99035.09;5075797;28;20208;-88
2023/09/23 05:15:44;;;;;;;7.13;2.93;;;;;;;24.10;55.10;99034.97;5075994;28;20567;-87
2023/09/23 05:18:10;;;;;;;12.47;3.27;;;;;;;24.19;54.53;99035.78;5076206;28;20173;-87
2023/09/23 05:20:37;;;;;;;15.43;3.07;;;;;;;24.37;54.41;99036.47;5075630;28;20314;-87
2023/09/23 05:23:05;;;;;;;10.17;2.90;;;;;;;24.56;54.32;99040.56;5057913;28;20275;-87
2023/09/23 05:25:31;;;;;;;7.13;2.93;;;;;;;24.77;53.78;99036.34;5057768;28;20255;-87
2023/09/23 05:27:57;;;;;;;9.07;3.20;;;;;;;24.91;53.20;99030.28;5058428;28;20181;-87
2023/09/23 05:30:26;;;;;;;10.43;3.57;;;;;;;25.07;52.89;99033.91;5075702;28;20208;-88
2023/09/23 05:32:51;;;;;;;9.87;2.90;;;;;;;25.23;52.83;99042.72;5075346;28;20189;-87
2023/09/23 05:35:18;;;;;;;11.23;3.50;;;;;;;25.30;52.91;99035.63;5058026;28;20187;-87
2023/09/23 05:37:47;;;;;;;8.10;2.93;;;;;;;25.44;52.93;99044.78;5075115;28;20314;-87
2023/09/23 05:42:52;;;;;;;6.40;2.70;;;;;;;25.89;51.79;99046.69;5075442;28;20639;-87
2023/09/23 05:45:18;;;;;;;8.10;3.97;;;;;;;26.16;51.17;99044.28;5073969;28;20184;-88
2023/09/23 05:47:47;;;;;;;8.33;3.17;;;;;;;26.38;51.14;99047.13;5037483;28;20178;-88
2023/09/23 05:50:15;;;;;;;12.23;2.93;;;;;;;26.60;50.53;99054.25;5066422;28;20262;-88
2023/09/23 05:52:40;;;;;;;9.33;3.23;;;;;;;27.00;49.52;99044.94;5057670;28;20233;-87
2023/09/23 05:55:07;;;;;;;6.03;2.80;;;;;;;27.25;48.70;99052.50;5075248;28;20270;-87
2023/09/23 05:57:38;;;;;;;11.20;3.60;;;;;;;27.63;48.08;99046.94;5057317;28;20276;-87
2023/09/23 06:00:08;;;;;;;4.82;2.42;;;;;;;28.10;48.00;99049.09;5075365;28;20185;-88
2023/09/23 06:02:35;;;;;;;9.15;3.15;;;;;;;28.66;46.20;99052.66;5056987;28;20181;-88
2023/09/23 06:05:01;;;;;;;9.00;2.85;;;;;;;29.39;44.40;99054.72;5056875;28;20260;-88
2023/09/23 06:07:29;;;;;;;5.25;2.88;;;;;;;30.02;43.56;99050.75;5074401;28;20165;-88
2023/09/23 06:09:58;;;;;;;8.07;3.00;;;;;;;30.66;42.36;99056.38;5074731;28;20686;-88
2023/09/23 06:12:27;;;;;;;8.48;2.50;;;;;;;31.22;41.30;99059.34;5074042;28;20224;-88
2023/09/23 06:14:54;;;;;;;10.00;2.70;;;;;;;31.75;40.15;99063.50;5074603;28;20619;-87
2023/09/23 06:17:19;;;;;;;6.47;2.63;;;;;;;32.09;39.55;99054.97;5074380;28;20273;-88
2023/09/23 06:19:46;;;;;;;9.07;3.33;;;;;;;32.59;38.59;99065.81;5074844;28;20359;-87
2023/09/23 06:22:13;;;;;;;9.68;3.10;;;;;;;33.03;37.52;99062.84;5074789;28;20193;-88
2023/09/23 06:24:40;;;;;;;8.13;2.90;;;;;;;33.49;37.21;99056.06;5074201;28;20169;-88
2023/09/23 06:27:07;;;;;;;10.82;2.67;;;;;;;34.17;35.42;99056.56;5074356;28;20268;-88
2023/09/23 06:29:33;;;;;;;7.82;3.00;;;;;;;34.83;34.33;99064.44;5074134;28;20173;-88
2023/09/23 06:32:00;;;;;;;6.18;3.25;;;;;;;35.26;32.77;99062.13;5074210;28;20177;-89
2023/09/23 06:34:25;;;;;;;8.45;3.25;;;;;;;35.64;32.36;99062.38;5074628;28;20176;-88
2023/09/23 06:36:52;;;;;;;8.63;3.25;;;;;;;36.04;32.38;99069.69;5074410;28;20176;-89
2023/09/23 06:39:18;;;;;;;5.90;3.38;;;;;;;36.37;31.83;99061.53;5074001;28;20166;-89
2023/09/23 06:41:45;;;;;;;7.03;3.28;;;;;;;36.63;30.49;99060.88;5056769;28;20170;-89
2023/09/23 06:44:10;;;;;;;6.88;2.75;;;;;;;36.40;31.94;99061.00;5073417;28;20270;-89
2023/09/23 06:46:37;;;;;;;8.27;2.63;;;;;;;36.69;31.42;99061.78;5073965;28;20180;-89
2023/09/23 06:49:02;;;;;;;8.05;3.00;;;;;;;37.02;30.62;99067.19;5056315;28;20173;-89
2023/09/23 06:51:30;;;;;;;7.72;2.78;;;;;;;37.31;30.34;99071.41;5073501;28;20262;-89
2023/09/23 06:53:56;;;;;;;10.38;3.42;;;;;;;37.33;29.81;99066.50;5073767;28;20203;-90
2023/09/23 06:56:22;;;;;;;7.68;3.08;;;;;;;37.42;29.69;99072.41;5073647;28;20649;-89
2023/09/23 06:58:47;;;;;;;5.80;2.70;;;;;;;37.51;29.98;99068.94;5073826;28;20173;-90
2023/09/23 07:01:14;;;;;;;6.88;3.13;;;;;;;37.64;29.39;99064.13;5073712;28;20687;-90
2023/09/23 07:03:41;;;;;;;5.72;2.70;;;;;;;37.60;29.08;99074.78;5073244;28;20242;-90
2023/09/23 07:06:08;;;;;;;5.63;2.80;;;;;;;37.63;29.29;99066.06;5073893;28;20255;-90
2023/09/23 07:08:35;;;;;;;10.18;3.15;;;;;;;37.66;29.06;99073.75;5073281;28;20177;-90
2023/09/23 07:11:02;;;;;;;8.65;3.13;;;;;;;37.58;29.34;99082.41;5073827;28;20173;-90
2023/09/23 07:13:30;;;;;;;11.18;3.75;;;;;;;37.54;29.13;99082.13;5073407;28;20196;-89
2023/09/23 07:15:57;;;;;;;5.88;3.28;;;;;;;37.49;29.26;99081.22;5053287;28;20181;-90
2023/09/23 07:18:23;;;;;;;11.77;3.65;;;;;;;37.42;28.97;99086.06;5053116;28;20173;-90
2023/09/23 07:20:56;;;;;;;10.07;3.33;;;;;;;37.25;29.71;99079.78;5058815;28;20173;-90
2023/09/23 07:23:22;;;;;;;6.68;3.08;;;;;;;37.21;30.30;99084.13;5073605;28;20561;-89
2023/09/23 07:25:50;;;;;;;7.38;2.78;;;;;;;37.13;30.53;99079.09;5073146;28;20177;-90
2023/09/23 07:28:17;;;;;;;8.00;3.58;;;;;;;36.94;30.31;99086.72;5073936;28;20177;-89
2023/09/23 07:30:44;;;;;;;7.68;3.03;;;;;;;36.82;30.41;99086.81;5073791;28;20179;-89
2023/09/23 07:33:10;;;;;;;6.00;2.97;;;;;;;36.69;30.63;99087.19;5055302;28;20658;-89
2023/09/23 07:35:38;;;;;;;8.77;2.88;;;;;;;36.71;30.11;99085.03;5055608;28;20173;-91
2023/09/23 07:38:03;;;;;;;9.60;3.08;;;;;;;36.48;30.97;99079.75;5055297;28;20242;-90
2023/09/23 07:40:30;;;;;;;8.48;2.92;;;;;;;36.42;30.98;99078.00;5055770;28;20172;-90
2023/09/23 07:42:56;;;;;;;10.40;2.88;;;;;;;36.41;30.83;99076.31;5055143;28;20184;-89
2023/09/23 07:45:23;;;;;;;12.38;3.30;;;;;;;36.21;31.10;99081.47;5072973;28;20227;-90
2023/09/23 07:47:48;;;;;;;8.07;2.78;;;;;;;35.80;32.04;99081.78;5072858;28;20189;-89
2023/09/23 07:50:16;;;;;;;6.05;2.75;;;;;;;35.89;32.35;99081.13;5073081;28;20250;-89
2023/09/23 07:52:42;;;;;;;8.50;3.17;;;;;;;35.90;31.67;99079.25;5072750;28;20204;-89
2023/09/23 07:55:10;;;;;;;5.40;2.70;;;;;;;35.96;31.31;99081.78;5072964;28;20196;-90
2023/09/23 07:57:36;;;;;;;4.75;2.35;;;;;;;35.99;31.93;99077.75;5073265;28;20176;-89
2023/09/23 08:00:04;;;;;;;13.02;2.72;;;;;;;35.88;31.82;99073.22;5072732;28;20173;-90
2023/09/23 08:02:32;;;;;;;5.88;2.53;;;;;;;36.08;31.10;99073.59;5072892;28;20168;-89
2023/09/23 08:04:58;;;;;;;8.75;2.30;;;;;;;35.80;31.37;99068.16;5073058;28;20173;-90
2023/09/23 08:07:25;;;;;;;5.00;2.33;;;;;;;35.63;32.21;99066.19;5072864;28;20187;-90
2023/09/23 08:09:51;;;;;;;7.10;2.60;;;;;;;35.83;32.08;99075.81;5073056;28;20524;-89
2023/09/23 08:12:17;;;;;;;6.72;2.80;;;;;;;35.87;31.71;99074.25;5072629;28;20209;-90
2023/09/23 08:14:44;;;;;;;11.13;3.28;;;;;;;35.87;31.95;99066.91;5055200;28;20354;-89
2023/09/23 08:17:11;;;;;;;6.15;2.72;;;;;;;36.07;31.70;99070.03;5072841;28;20173;-89
2023/09/23 08:19:38;;;;;;;5.78;3.40;;;;;;;35.93;32.20;99057.72;5072769;28;20184;-89
2023/09/23 08:22:05;;;;;;;6.97;3.25;;;;;;;35.93;31.47;99063.19;5072804;28;20759;-90
2023/09/23 08:24:32;;;;;;;6.90;3.47;;;;;;;36.02;32.24;99066.38;5055196;28;20359;-89
2023/09/23 08:26:58;;;;;;;8.50;3.13;;;;;;;36.20;31.87;99066.97;5072464;28;20181;-89
2023/09/23 08:29:25;;;;;;;8.82;3.47;;;;;;;36.38;31.20;99060.44;5072824;28;20691;-89
2023/09/23 08:31:52;;;;;;;6.15;2.55;;;;;;;36.52;31.47;99066.44;5076264;28;20292;-90
2023/09/23 08:34:18;;;;;;;6.07;2.92;;;;;;;36.57;31.76;99053.69;5076299;28;20188;-89
2023/09/23 08:36:45;;;;;;;8.93;2.83;;;;;;;36.45;31.67;99061.13;5076406;28;20197;-90
2023/09/23 08:39:11;;;;;;;10.93;3.53;;;;;;;36.28;30.95;99054.81;5076156;28;20183;-89
2023/09/23 08:41:38;;;;;;;5.78;2.40;;;;;;;36.02;31.23;99055.47;5076268;28;20177;-90
2023/09/23 08:44:05;;;;;;;5.50;2.30;;;;;;;35.86;30.59;99056.22;5075891;28;20189;-89
2023/09/23 08:46:32;;;;;;;7.50;3.00;;;;;;;36.12;32.07;99056.47;5076528;28;20642;-89
2023/09/23 08:49:00;;;;;;;6.32;2.65;;;;;;;36.29;31.27;99057.31;5076160;28;20185;-90
2023/09/23 08:51:27;;;;;;;6.00;2.40;;;;;;;36.69;30.96;99050.84;5076013;28;20276;-89
2023/09/23 08:53:54;;;;;;;11.38;2.55;;;;;;;36.55;29.63;99044.91;5076035;28;20208;-90
2023/09/23 08:56:23;;;;;;;9.98;2.95;;;;;;;36.22;30.76;99034.78;5075856;28;20563;-89
2023/09/23 08:58:49;;;;;;;5.82;2.60;;;;;;;36.49;31.65;99045.91;5075719;28;20211;-88
2023/09/23 09:01:17;;;;;;;8.43;2.65;;;;;;;36.57;31.09;99039.19;5075957;28;20256;-89
2023/09/23 09:03:44;;;;;;;6.55;2.22;;;;;;;36.71;29.89;99035.88;5072471;28;20192;-88
2023/09/23 09:06:18;;;;;;;6.30;2.60;;;;;;;36.92;29.67;99036.97;5055974;28;20181;-89
2023/09/23 09:08:44;;;;;;;11.00;2.78;;;;;;;37.00;30.14;99031.09;5055922;28;20263;-88
2023/09/23 09:11:11;;;;;;;9.30;2.28;;;;;;;37.16;30.62;99029.38;5058157;28;20598;-90
2023/09/23 09:13:38;;;;;;;5.90;2.60;;;;;;;36.90;29.95;99029.00;5057869;28;20258;-89
2023/09/23 09:16:05;;;;;;;8.15;2.90;;;;;;;36.87;29.76;99024.03;5058080;28;20185;-89
2023/09/23 09:18:31;;;;;;;7.50;2.63;;;;;;;37.05;29.02;99024.88;5057878;28;20264;-89
2023/09/23 09:20:58;;;;;;;8.43;2.55;;;;;;;36.94;29.92;99016.53;5075632;28;20322;-89
2023/09/23 09:23:32;;;;;;;8.43;2.80;;;;;;;37.06;30.65;99013.66;5075618;28;20177;-89
2023/09/23 09:25:59;;;;;;;6.45;2.45;;;;;;;37.12;29.42;99014.56;5074965;28;20184;-89
2023/09/23 09:28:26;;;;;;;8.77;2.80;;;;;;;37.37;29.60;99014.88;5075762;28;20181;-89
2023/09/23 09:30:59;;;;;;;6.13;2.75;;;;;;;37.61;29.53;99008.03;5075324;28;20181;-89
2023/09/23 09:33:27;;;;;;;5.57;3.00;;;;;;;37.58;28.33;99010.47;5075420;28;20197;-89
2023/09/23 09:35:57;;;;;;;8.50;2.60;;;;;;;37.45;29.58;99000.75;5075366;28;20260;-89
2023/09/23 09:38:26;;;;;;;9.65;3.20;;;;;;;37.50;28.38;98998.09;5075325;28;20260;-89
2023/09/23 09:41:02;;;;;;;10.27;2.40;;;;;;;37.63;28.93;98994.94;5074966;28;20238;-88
2023/09/23 09:43:28;;;;;;;4.43;2.15;;;;;;;37.81;29.12;98993.75;5057162;28;20173;-89
2023/09/23 09:45:57;;;;;;;7.07;2.45;;;;;;;38.01;28.63;98989.28;5075284;28;20232;-89
2023/09/23 09:48:28;;;;;;;9.65;2.60;;;;;;;37.93;28.17;98987.03;5075057;28;20177;-90
2023/09/23 09:50:54;;;;;;;6.00;2.45;;;;;;;37.71;28.18;98988.97;5075673;28;20162;-89
2023/09/23 09:53:20;;;;;;;7.03;2.20;;;;;;;37.83;27.24;98981.44;5075038;28;20228;-89
2023/09/23 09:55:46;;;;;;;5.53;2.33;;;;;;;37.95;29.28;98978.53;5074979;28;20192;-90
2023/09/23 09:58:12;;;;;;;6.03;2.55;;;;;;;38.09;28.35;98977.03;5075246;28;20169;-90
2023/09/23 10:00:42;;;;;;;7.57;2.83;;;;;;;38.39;28.08;98973.72;5057299;28;20185;-89
2023/09/23 10:03:11;;;;;;;8.77;2.53;;;;;;;38.56;27.14;98968.88;5074866;28;20256;-88
2023/09/23 10:05:49;;;;;;;5.43;2.38;;;;;;;38.39;27.60;98970.97;5057481;28;20543;-88
2023/09/23 10:08:23;;;;;;;9.27;2.88;;;;;;;38.29;28.38;98963.47;5075104;28;20161;-89
2023/09/23 10:10:58;;;;;;;8.35;2.50;;;;;;;38.43;28.35;98958.38;5074224;28;20184;-89
2023/09/23 10:13:30;;;;;;;7.43;3.13;;;;;;;38.42;27.23;98956.75;5074527;28;20222;-89
2023/09/23 10:16:17;;;;;;;11.40;2.88;;;;;;;38.84;27.12;98949.31;5074589;28;20172;-89
2023/09/23 10:18:44;;;;;;;9.10;2.70;;;;;;;39.04;27.58;98943.09;5056976;28;20169;-89
2023/09/23 10:21:30;;;;;;;4.82;2.50;;;;;;;38.75;26.76;98945.44;5074288;28;20204;-89
2023/09/23 10:23:57;;;;;;;5.47;2.55;;;;;;;38.96;27.18;98936.22;5056412;28;20177;-89
2023/09/23 10:26:28;;;;;;;10.32;2.60;;;;;;;39.02;26.64;98929.63;5074395;28;20181;-90
2023/09/23 10:28:59;;;;;;;11.30;3.70;;;;;;;39.24;26.57;98924.81;5074485;28;20591;-90
2023/09/23 10:31:31;;;;;;;9.15;3.30;;;;;;;39.38;26.33;98922.38;5056474;28;20556;-89
2023/09/23 10:34:04;;;;;;;10.15;2.33;;;;;;;39.62;26.32;98918.03;5074765;28;20189;-89
2023/09/23 10:36:30;;;;;;;5.60;2.60;;;;;;;39.50;25.72;98919.34;5056269;28;20185;-88
2023/09/23 10:38:58;;;;;;;6.82;1.95;;;;;;;39.14;25.06;98916.53;5063283;28;20235;-88
2023/09/23 10:41:37;;;;;;;6.35;2.17;;;;;;;39.20;26.24;98915.47;5036516;28;20186;-89
2023/09/23 10:44:03;;;;;;;9.77;2.08;;;;;;;39.47;24.92;98914.44;5056556;28;20224;-89
2023/09/23 10:46:32;;;;;;;8.65;2.78;;;;;;;39.55;25.79;98902.88;5074014;28;20629;-89
2023/09/23 10:48:59;;;;;;;11.75;2.58;;;;;;;39.78;26.25;98905.94;5056420;28;20196;-89
2023/09/23 10:51:26;;;;;;;5.63;2.08;;;;;;;40.01;25.32;98904.56;5073608;28;20578;-90
2023/09/23 10:53:52;;;;;;;9.55;1.95;;;;;;;40.09;24.57;98894.97;5073630;28;20297;-90
2023/09/23 10:56:22;;;;;;;3.65;1.52;;;;;;;40.03;24.50;98891.38;5073800;28;20196;-89
2023/09/23 10:58:52;;;;;;;11.13;2.55;;;;;;;40.24;24.81;98887.50;5073715;28;20246;-89
2023/09/23 11:01:21;;;;;;;9.35;2.42;;;;;;;40.43;24.84;98884.97;5073768;28;20193;-89
2023/09/23 11:03:47;;;;;;;13.27;2.22;;;;;;;40.58;23.52;98881.38;5073881;28;20196;-89
2023/09/23 11:06:16;;;;;;;7.50;2.30;;;;;;;40.44;23.43;98881.09;5073906;28;20663;-89
2023/09/23 11:08:43;;;;;;;6.70;2.20;;;;;;;40.39;23.13;98870.97;5073588;28;20196;-89
2023/09/23 11:11:11;;;;;;;9.63;2.33;;;;;;;40.59;23.37;98872.88;5073871;28;20267;-88
2023/09/23 11:13:38;;;;;;;14.15;2.58;;;;;;;40.37;23.17;98864.94;5056766;28;20192;-88
2023/09/23 11:16:10;;;;;;;9.00;2.35;;;;;;;40.30;23.07;98861.69;5073276;28;20656;-90
2023/09/23 11:18:38;;;;;;;8.18;2.20;;;;;;;40.28;24.03;98861.09;5073402;28;20181;-90
2023/09/23 11:21:03;;;;;;;4.88;2.10;;;;;;;40.40;24.34;98858.88;5055555;28;20547;-89
2023/09/23 11:23:30;;;;;;;18.73;2.47;;;;;;;40.54;23.37;98847.31;5073305;28;20193;-88
2023/09/23 11:25:57;;;;;;;11.15;2.92;;;;;;;40.64;23.73;98836.28;5073642;28;20188;-89
2023/09/23 11:28:27;;;;;;;13.70;2.80;;;;;;;40.90;22.85;98838.63;5073114;28;20188;-89
2023/09/23 11:30:55;;;;;;;11.73;3.10;;;;;;;40.81;22.67;98836.72;5073477;28;20153;-90
2023/09/23 11:33:21;;;;;;;10.10;2.13;;;;;;;41.02;22.46;98835.53;5073004;28;20169;-90
2023/09/23 11:35:48;;;;;;;9.35;2.63;;;;;;;41.13;22.45;98822.50;5073252;28;20259;-89
2023/09/23 11:38:16;;;;;;;7.63;2.22;;;;;;;41.27;21.42;98829.03;5073491;28;20173;-89